createdAt,value
2019-01-24T00:00:34.097Z,58.60
2019-01-24T00:01:34.059Z,53.70
2019-01-24T00:02:33.974Z,55.60
2019-01-24T00:03:33.914Z,54.40
2019-01-24T00:04:33.853Z,54.70
2019-01-24T00:05:33.791Z,57.60
2019-01-24T00:06:33.756Z,57.80
2019-01-24T00:07:33.671Z,57.00
2019-01-24T00:08:33.613Z,54.50
2019-01-24T00:09:33.553Z,52.70
2019-01-24T00:10:33.492Z,55.90
2019-01-24T00:11:33.456Z,55.90
2019-01-24T00:12:33.368Z,57.60
2019-01-24T00:13:33.307Z,54.20
2019-01-24T00:14:33.249Z,58.10
2019-01-24T00:15:33.193Z,53.20
2019-01-24T00:16:33.152Z,54.80
2019-01-24T00:17:33.068Z,57.10
2019-01-24T00:18:33.014Z,59.10
2019-01-24T00:19:32.946Z,57.40
2019-01-24T00:20:32.888Z,57.00
2019-01-24T00:21:32.848Z,55.90
2019-01-24T00:22:32.774Z,55.60
2019-01-24T00:23:32.706Z,55.90
2019-01-24T00:24:32.647Z,58.50
2019-01-24T00:25:32.582Z,52.80
2019-01-24T00:26:32.604Z,57.90
2019-01-24T00:27:32.463Z,57.40
2019-01-24T00:28:32.401Z,57.80
2019-01-24T00:29:32.343Z,57.10
2019-01-24T00:30:32.281Z,56.40
2019-01-24T00:31:32.222Z,61.60
2019-01-24T00:32:32.186Z,57.80
2019-01-24T00:33:32.098Z,57.10
2019-01-24T00:34:32.046Z,58.10
2019-01-24T00:35:31.980Z,61.80
2019-01-24T00:36:31.917Z,55.00
2019-01-24T00:37:31.881Z,57.30
2019-01-24T00:38:31.794Z,58.00
2019-01-24T00:39:31.740Z,57.60
2019-01-24T00:40:31.675Z,63.70
2019-01-24T00:41:31.616Z,58.00
2019-01-24T00:42:31.575Z,56.60
2019-01-24T00:43:31.493Z,63.10
2019-01-24T00:44:31.437Z,61.10
2019-01-24T00:45:31.374Z,59.40
2019-01-24T00:46:31.311Z,58.50
2019-01-24T00:47:31.274Z,60.30
2019-01-24T00:48:31.192Z,59.30
2019-01-24T00:49:31.136Z,58.10
2019-01-24T00:50:31.077Z,52.80
2019-01-24T00:51:31.010Z,59.40
2019-01-24T00:52:30.970Z,61.90
2019-01-24T00:53:30.887Z,63.70
2019-01-24T00:54:30.829Z,56.60
2019-01-24T00:55:30.769Z,62.80
2019-01-24T00:56:30.706Z,64.90
2019-01-24T00:57:30.667Z,58.50
2019-01-24T00:58:30.584Z,57.20
2019-01-24T00:59:30.522Z,57.70
2019-01-24T01:00:30.462Z,59.30
2019-01-24T01:01:30.401Z,58.70
2019-01-24T01:02:30.362Z,61.50
2019-01-24T01:03:30.280Z,59.20
2019-01-24T01:04:30.220Z,56.40
2019-01-24T01:05:30.157Z,56.20
2019-01-24T01:06:30.098Z,55.90
2019-01-24T01:07:30.061Z,57.40
2019-01-24T01:08:29.976Z,63.70
2019-01-24T01:09:29.914Z,58.70
2019-01-24T01:10:29.854Z,59.20
2019-01-24T01:11:29.792Z,58.30
2019-01-24T01:12:29.776Z,56.20
2019-01-24T01:13:29.670Z,60.60
2019-01-24T01:14:29.608Z,57.10
2019-01-24T01:15:29.551Z,59.20
2019-01-24T01:16:29.491Z,60.90
2019-01-24T01:17:29.429Z,58.30
2019-01-24T01:18:29.387Z,58.50
2019-01-24T01:19:29.306Z,57.70
2019-01-24T01:20:29.246Z,59.70
2019-01-24T01:21:29.185Z,62.60
2019-01-24T01:22:29.124Z,55.70
2019-01-24T01:23:29.086Z,60.50
2019-01-24T01:24:29.004Z,57.10
2019-01-24T01:25:28.944Z,56.50
2019-01-24T01:26:28.882Z,58.80
2019-01-24T01:27:28.821Z,62.50
2019-01-24T01:28:28.785Z,66.00
2019-01-24T01:29:28.699Z,62.70
2019-01-24T01:30:28.640Z,61.30
2019-01-24T01:31:28.576Z,63.50
2019-01-24T01:32:28.517Z,63.00
2019-01-24T01:33:28.478Z,61.40
2019-01-24T01:34:28.394Z,60.60
2019-01-24T01:35:28.335Z,59.90
2019-01-24T01:36:28.272Z,59.60
2019-01-24T01:37:28.210Z,59.10
2019-01-24T01:38:28.173Z,62.30
2019-01-24T01:39:28.096Z,59.40
2019-01-24T01:40:28.029Z,62.90
2019-01-24T01:41:27.968Z,61.50
2019-01-24T01:42:27.910Z,59.70
2019-01-24T01:43:27.872Z,66.20
2019-01-24T01:44:27.785Z,58.10
2019-01-24T01:45:27.726Z,58.00
2019-01-24T01:46:27.665Z,62.80
2019-01-24T01:47:27.606Z,62.20
2019-01-24T01:48:27.567Z,56.00
2019-01-24T01:49:27.482Z,60.10
2019-01-24T01:50:27.422Z,60.40
2019-01-24T01:51:27.361Z,60.30
2019-01-24T01:52:27.298Z,57.90
2019-01-24T01:53:27.263Z,62.80
2019-01-24T01:54:27.182Z,64.60
2019-01-24T01:55:27.119Z,63.80
2019-01-24T01:56:27.059Z,61.00
2019-01-24T01:57:26.997Z,61.60
2019-01-24T01:58:26.961Z,61.40
2019-01-24T01:59:26.873Z,63.70
2019-01-24T02:00:26.813Z,62.00
2019-01-24T02:01:26.752Z,61.70
2019-01-24T02:02:26.693Z,63.70
2019-01-24T02:03:26.655Z,58.60
2019-01-24T02:04:26.570Z,62.90
2019-01-24T02:05:26.511Z,64.40
2019-01-24T02:06:26.443Z,67.30
2019-01-24T02:07:26.386Z,62.30
2019-01-24T02:08:26.351Z,58.80
2019-01-24T02:09:26.265Z,63.80
2019-01-24T02:10:26.204Z,63.80
2019-01-24T02:11:26.142Z,64.80
2019-01-24T02:12:26.087Z,62.40
2019-01-24T02:13:26.044Z,64.70
2019-01-24T02:14:25.965Z,65.10
2019-01-24T02:15:25.901Z,61.50
2019-01-24T02:16:25.843Z,62.60
2019-01-24T02:17:25.780Z,61.00
2019-01-24T02:18:25.740Z,61.90
2019-01-24T02:19:25.659Z,64.80
2019-01-24T02:20:25.598Z,63.00
2019-01-24T02:21:25.534Z,62.50
2019-01-24T02:22:25.477Z,63.30
2019-01-24T02:23:25.436Z,62.60
2019-01-24T02:24:25.351Z,65.20
2019-01-24T02:25:25.290Z,60.00
2019-01-24T02:26:25.231Z,59.60
2019-01-24T02:27:25.169Z,65.00
2019-01-24T02:28:25.142Z,68.40
2019-01-24T02:29:25.047Z,61.40
2019-01-24T02:30:24.989Z,63.30
2019-01-24T02:31:24.924Z,64.40
2019-01-24T02:32:24.867Z,61.20
2019-01-24T02:33:24.826Z,61.30
2019-01-24T02:34:24.743Z,66.40
2019-01-24T02:35:24.686Z,63.40
2019-01-24T02:36:24.628Z,62.30
2019-01-24T02:37:24.558Z,60.70
2019-01-24T02:38:24.536Z,63.50
2019-01-24T02:39:24.440Z,61.30
2019-01-24T02:40:24.375Z,62.50
2019-01-24T02:41:24.317Z,62.90
2019-01-24T02:42:24.259Z,61.00
2019-01-24T02:43:24.191Z,60.10
2019-01-24T02:44:24.159Z,62.10
2019-01-24T02:45:24.074Z,58.80
2019-01-24T02:46:24.036Z,60.10
2019-01-24T02:47:23.955Z,59.10
2019-01-24T02:48:23.901Z,61.50
2019-01-24T02:49:23.851Z,52.60
2019-01-24T02:50:23.776Z,65.70
2019-01-24T02:51:23.746Z,62.60
2019-01-24T02:52:23.647Z,61.60
2019-01-24T02:53:23.587Z,60.00
2019-01-24T02:54:23.565Z,60.60
2019-01-24T02:55:23.467Z,66.50
2019-01-24T02:56:23.406Z,65.40
2019-01-24T02:57:23.342Z,59.40
2019-01-24T02:58:23.282Z,66.10
2019-01-24T02:59:23.246Z,63.70
2019-01-24T03:00:23.160Z,57.70
2019-01-24T03:01:23.105Z,63.20
2019-01-24T03:02:23.038Z,62.90
2019-01-24T03:03:22.980Z,61.50
2019-01-24T03:04:22.953Z,59.50
2019-01-24T03:05:22.857Z,60.90
2019-01-24T03:06:22.796Z,62.20
2019-01-24T03:07:22.735Z,62.40
2019-01-24T03:08:22.684Z,60.90
2019-01-24T03:09:22.638Z,57.70
2019-01-24T03:10:22.554Z,56.60
2019-01-24T03:11:22.492Z,61.20
2019-01-24T03:12:22.433Z,63.40
2019-01-24T03:13:22.371Z,57.60
2019-01-24T03:14:22.337Z,59.60
2019-01-24T03:15:22.260Z,63.80
2019-01-24T03:16:22.190Z,60.20
2019-01-24T03:17:22.129Z,56.80
2019-01-24T03:18:22.069Z,60.00
2019-01-24T03:19:22.033Z,62.90
2019-01-24T03:20:21.947Z,60.70
2019-01-24T03:21:21.889Z,62.00
2019-01-24T03:22:21.825Z,56.90
2019-01-24T03:23:21.767Z,57.40
2019-01-24T03:24:21.729Z,56.10
2019-01-24T03:25:21.646Z,56.10
2019-01-24T03:26:21.584Z,57.80
2019-01-24T03:27:21.526Z,56.20
2019-01-24T03:28:21.463Z,61.50
2019-01-24T03:29:21.430Z,57.70
2019-01-24T03:30:21.366Z,62.30
2019-01-24T03:31:21.284Z,58.20
2019-01-24T03:32:21.227Z,58.60
2019-01-24T03:33:21.165Z,55.70
2019-01-24T03:34:21.124Z,56.10
2019-01-24T03:35:21.043Z,57.40
2019-01-24T03:36:20.983Z,55.80
2019-01-24T03:37:20.919Z,58.90
2019-01-24T03:38:20.862Z,57.10
2019-01-24T03:39:20.822Z,61.90
2019-01-24T03:40:20.743Z,59.90
2019-01-24T03:41:20.679Z,55.40
2019-01-24T03:42:20.622Z,55.00
2019-01-24T03:43:20.561Z,58.70
2019-01-24T03:44:20.519Z,54.90
2019-01-24T03:45:20.437Z,53.80
2019-01-24T03:46:20.376Z,56.50
2019-01-24T03:47:20.319Z,55.70
2019-01-24T03:48:20.258Z,58.20
2019-01-24T03:49:20.225Z,52.60
2019-01-24T03:50:20.151Z,59.20
2019-01-24T03:51:20.076Z,56.10
2019-01-24T03:52:20.018Z,58.20
2019-01-24T03:53:19.981Z,61.70
2019-01-24T03:54:19.893Z,58.00
2019-01-24T03:55:19.862Z,58.50
2019-01-24T03:56:19.774Z,55.20
2019-01-24T03:57:19.714Z,58.30
2019-01-24T03:58:19.656Z,56.20
2019-01-24T03:59:19.593Z,55.60
2019-01-24T04:00:19.562Z,58.00
2019-01-24T04:01:19.470Z,57.30
2019-01-24T04:02:19.411Z,54.80
2019-01-24T04:03:19.352Z,53.70
2019-01-24T04:04:19.291Z,54.10
2019-01-24T04:05:19.253Z,55.40
2019-01-24T04:06:19.169Z,54.90
2019-01-24T04:07:19.113Z,52.60
2019-01-24T04:08:19.051Z,54.40
2019-01-24T04:09:18.990Z,55.00
2019-01-24T04:10:18.959Z,54.20
2019-01-24T04:11:18.874Z,52.60
2019-01-24T04:12:18.809Z,53.60
2019-01-24T04:13:18.748Z,52.50
2019-01-24T04:14:18.690Z,55.20
2019-01-24T04:15:18.654Z,54.80
2019-01-24T04:16:18.573Z,57.00
2019-01-24T04:17:18.508Z,58.20
2019-01-24T04:18:18.451Z,52.90
2019-01-24T04:19:18.390Z,52.40
2019-01-24T04:20:18.350Z,55.90
2019-01-24T04:21:18.269Z,55.60
2019-01-24T04:22:18.209Z,57.40
2019-01-24T04:23:18.150Z,53.00
2019-01-24T04:24:18.092Z,54.20
2019-01-24T04:25:18.052Z,55.90
2019-01-24T04:26:17.969Z,53.60
2019-01-24T04:27:17.907Z,53.80
2019-01-24T04:28:17.850Z,55.80
2019-01-24T04:29:25.677Z,57.20
2019-01-24T04:30:24.912Z,54.90
2019-01-24T04:31:17.699Z,56.10
2019-01-24T04:32:17.645Z,53.30
2019-01-24T04:33:17.582Z,56.40
2019-01-24T04:34:17.515Z,56.40
2019-01-24T04:35:20.100Z,57.60
2019-01-24T04:36:17.396Z,51.10
2019-01-24T04:37:17.339Z,53.20
2019-01-24T04:38:17.278Z,55.80
2019-01-24T04:39:17.214Z,53.70
2019-01-24T04:40:17.182Z,51.50
2019-01-24T04:41:17.093Z,55.80
2019-01-24T04:42:17.038Z,49.60
2019-01-24T04:43:16.970Z,52.40
2019-01-24T04:44:16.918Z,51.60
2019-01-24T04:45:16.884Z,49.90
2019-01-24T04:46:16.797Z,52.40
2019-01-24T04:47:16.732Z,50.50
2019-01-24T04:48:16.673Z,54.90
2019-01-24T04:49:16.612Z,56.80
2019-01-24T04:50:16.580Z,61.70
2019-01-24T04:51:16.488Z,53.70
2019-01-24T04:52:16.437Z,55.80
2019-01-24T04:53:16.372Z,53.80
2019-01-24T04:54:16.314Z,50.40
2019-01-24T04:55:16.280Z,54.20
2019-01-24T04:56:16.190Z,50.80
2019-01-24T04:57:16.135Z,50.10
2019-01-24T04:58:16.071Z,51.80
2019-01-24T04:59:16.007Z,54.00
2019-01-24T05:00:15.980Z,51.20
2019-01-24T05:01:15.889Z,49.40
2019-01-24T05:02:15.834Z,57.10
2019-01-24T05:03:16.215Z,55.60
2019-01-24T05:04:15.705Z,57.00
2019-01-24T05:05:15.683Z,52.30
2019-01-24T05:06:15.588Z,55.00
2019-01-24T05:07:15.529Z,51.60
2019-01-24T05:08:15.468Z,55.10
2019-01-24T05:09:15.409Z,55.30
2019-01-24T05:10:15.380Z,51.00
2019-01-24T05:11:15.290Z,54.00
2019-01-24T05:12:15.226Z,49.60
2019-01-24T05:13:15.167Z,56.70
2019-01-24T05:14:15.117Z,51.30
2019-01-24T05:15:15.080Z,55.30
2019-01-24T05:16:14.997Z,56.20
2019-01-24T05:17:14.927Z,54.60
2019-01-24T05:18:14.871Z,56.60
2019-01-24T05:19:14.813Z,52.70
2019-01-24T05:20:14.778Z,56.10
2019-01-24T05:21:14.684Z,53.40
2019-01-24T05:22:14.625Z,52.80
2019-01-24T05:23:14.566Z,52.80
2019-01-24T05:24:14.510Z,50.70
2019-01-24T05:25:14.471Z,55.30
2019-01-24T05:26:14.387Z,55.20
2019-01-24T05:27:14.329Z,57.20
2019-01-24T05:28:14.277Z,50.60
2019-01-24T05:29:14.207Z,53.80
2019-01-24T05:30:14.182Z,53.50
2019-01-24T05:31:14.086Z,56.10
2019-01-24T05:32:14.028Z,52.00
2019-01-24T05:33:13.964Z,52.20
2019-01-24T05:34:13.904Z,54.90
2019-01-24T05:35:13.845Z,61.80
2019-01-24T05:36:13.805Z,53.90
2019-01-24T05:37:13.729Z,54.90
2019-01-24T05:38:13.658Z,52.20
2019-01-24T05:39:13.610Z,53.50
2019-01-24T05:40:13.544Z,52.50
2019-01-24T05:41:13.510Z,51.10
2019-01-24T05:42:13.428Z,52.90
2019-01-24T05:43:13.366Z,48.00
2019-01-24T05:44:13.306Z,55.40
2019-01-24T05:45:13.247Z,57.80
2019-01-24T05:46:13.208Z,53.00
2019-01-24T05:47:13.132Z,57.20
2019-01-24T05:48:13.069Z,50.80
2019-01-24T05:49:13.006Z,52.60
2019-01-24T05:50:12.949Z,54.20
2019-01-24T05:51:12.946Z,53.10
2019-01-24T05:52:19.220Z,54.00
2019-01-24T05:53:12.765Z,54.00
2019-01-24T05:54:12.704Z,55.20
2019-01-24T05:55:12.644Z,56.80
2019-01-24T05:56:12.609Z,55.10
2019-01-24T05:57:12.527Z,56.00
2019-01-24T05:58:12.461Z,56.60
2019-01-24T05:59:12.407Z,52.60
2019-01-24T06:00:12.350Z,55.40
2019-01-24T06:01:12.308Z,54.10
2019-01-24T06:02:12.225Z,51.60
2019-01-24T06:03:12.163Z,54.50
2019-01-24T06:04:12.104Z,52.00
2019-01-24T06:05:12.042Z,47.50
2019-01-24T06:06:12.012Z,50.90
2019-01-24T06:07:11.927Z,51.20
2019-01-24T06:08:11.864Z,54.40
2019-01-24T06:09:11.805Z,55.20
2019-01-24T06:10:11.745Z,56.30
2019-01-24T06:11:11.706Z,49.80
2019-01-24T06:12:11.624Z,50.30
2019-01-24T06:13:11.563Z,57.90
2019-01-24T06:14:11.504Z,49.80
2019-01-24T06:15:11.452Z,55.30
2019-01-24T06:16:11.411Z,51.90
2019-01-24T06:17:11.322Z,55.30
2019-01-24T06:18:11.261Z,56.30
2019-01-24T06:19:11.203Z,55.60
2019-01-24T06:20:11.141Z,57.20
2019-01-24T06:21:11.107Z,56.20
2019-01-24T06:22:11.018Z,54.80
2019-01-24T06:23:11.214Z,54.00
2019-01-24T06:24:10.902Z,54.60
2019-01-24T06:25:10.845Z,55.90
2019-01-24T06:26:10.808Z,52.30
2019-01-24T06:27:10.723Z,55.30
2019-01-24T06:28:10.665Z,55.90
2019-01-24T06:29:10.601Z,51.20
2019-01-24T06:30:10.541Z,53.00
2019-01-24T06:31:10.508Z,55.90
2019-01-24T06:32:10.428Z,52.60
2019-01-24T06:33:10.356Z,53.80
2019-01-24T06:34:10.301Z,52.90
2019-01-24T06:35:10.247Z,53.70
2019-01-24T06:36:10.212Z,51.30
2019-01-24T06:37:10.119Z,55.40
2019-01-24T06:38:10.062Z,55.90
2019-01-24T06:39:10.004Z,56.10
2019-01-24T06:40:09.949Z,53.00
2019-01-24T06:41:09.902Z,48.30
2019-01-24T06:42:09.821Z,53.30
2019-01-24T06:43:09.763Z,54.70
2019-01-24T06:44:09.702Z,56.30
2019-01-24T06:45:09.657Z,54.30
2019-01-24T06:46:09.608Z,52.10
2019-01-24T06:47:09.535Z,53.70
2019-01-24T06:48:09.466Z,50.70
2019-01-24T06:49:09.400Z,56.20
2019-01-24T06:50:09.343Z,53.10
2019-01-24T06:51:09.313Z,52.20
2019-01-24T06:52:09.227Z,54.20
2019-01-24T06:53:09.163Z,53.10
2019-01-24T06:54:09.099Z,51.60
2019-01-24T06:55:09.039Z,54.80
2019-01-24T06:56:09.011Z,52.10
2019-01-24T06:57:09.182Z,57.70
2019-01-24T06:58:08.861Z,49.00
2019-01-24T06:59:08.806Z,52.40
2019-01-24T07:00:08.747Z,52.10
2019-01-24T07:01:08.716Z,53.50
2019-01-24T07:02:08.617Z,47.60
2019-01-24T07:03:08.562Z,50.50
2019-01-24T07:04:08.499Z,52.20
2019-01-24T07:05:08.442Z,50.40
2019-01-24T07:06:08.381Z,54.20
2019-01-24T07:07:08.346Z,57.40
2019-01-24T07:08:08.316Z,54.10
2019-01-24T07:09:08.205Z,52.00
2019-01-24T07:10:08.147Z,58.20
2019-01-24T07:11:08.086Z,52.20
2019-01-24T07:12:08.044Z,55.70
2019-01-24T07:13:07.965Z,50.30
2019-01-24T07:14:07.902Z,54.70
2019-01-24T07:15:07.842Z,56.50
2019-01-24T07:16:07.792Z,57.90
2019-01-24T07:17:07.744Z,52.30
2019-01-24T07:18:07.658Z,54.40
2019-01-24T07:19:07.628Z,53.70
2019-01-24T07:20:07.538Z,54.80
2019-01-24T07:21:07.484Z,53.80
2019-01-24T07:22:07.444Z,59.90
2019-01-24T07:23:07.362Z,56.00
2019-01-24T07:24:07.302Z,58.40
2019-01-24T07:25:07.239Z,57.80
2019-01-24T07:26:07.182Z,51.30
2019-01-24T07:27:07.140Z,51.40
2019-01-24T07:28:07.063Z,52.80
2019-01-24T07:29:06.993Z,54.70
2019-01-24T07:30:06.936Z,55.00
2019-01-24T07:31:06.880Z,56.20
2019-01-24T07:32:06.847Z,54.60
2019-01-24T07:33:06.758Z,54.80
2019-01-24T07:34:06.705Z,54.30
2019-01-24T07:35:06.635Z,51.50
2019-01-24T07:36:06.576Z,55.70
2019-01-24T07:37:06.537Z,52.70
2019-01-24T07:38:06.455Z,54.70
2019-01-24T07:39:06.400Z,54.00
2019-01-24T07:40:06.351Z,52.60
2019-01-24T07:41:06.277Z,52.40
2019-01-24T07:42:06.249Z,51.50
2019-01-24T07:43:06.155Z,54.40
2019-01-24T07:44:06.103Z,54.60
2019-01-24T07:45:06.039Z,52.20
2019-01-24T07:46:05.975Z,59.80
2019-01-24T07:47:05.943Z,55.60
2019-01-24T07:48:05.858Z,55.40
2019-01-24T07:49:05.792Z,54.20
2019-01-24T07:50:05.734Z,50.70
2019-01-24T07:51:05.676Z,55.60
2019-01-24T07:52:05.631Z,55.80
2019-01-24T07:53:05.591Z,55.00
2019-01-24T07:54:05.542Z,57.90
2019-01-24T07:55:05.428Z,55.00
2019-01-24T07:56:05.403Z,53.10
2019-01-24T07:57:05.354Z,54.30
2019-01-24T07:58:05.243Z,50.90
2019-01-24T07:59:05.226Z,55.50
2019-01-24T08:00:05.141Z,56.10
2019-01-24T08:01:05.077Z,53.50
2019-01-24T08:02:05.007Z,53.40
2019-01-24T08:03:04.973Z,53.80
2019-01-24T08:04:04.889Z,55.90
2019-01-24T08:05:04.825Z,57.50
2019-01-24T08:06:08.970Z,56.00
2019-01-24T08:07:04.707Z,49.20
2019-01-24T08:08:04.687Z,55.60
2019-01-24T08:09:04.592Z,54.30
2019-01-24T08:10:04.538Z,54.20
2019-01-24T08:11:04.471Z,51.20
2019-01-24T08:12:04.410Z,52.30
2019-01-24T08:13:04.404Z,51.80
2019-01-24T08:14:04.296Z,57.00
2019-01-24T08:15:04.229Z,53.50
2019-01-24T08:16:04.169Z,53.70
2019-01-24T08:17:04.106Z,53.50
2019-01-24T08:18:04.079Z,54.60
2019-01-24T08:19:03.998Z,57.60
2019-01-24T08:20:03.929Z,55.30
2019-01-24T08:21:03.868Z,54.30
2019-01-24T08:22:03.815Z,54.00
2019-01-24T08:23:03.774Z,54.40
2019-01-24T08:24:03.692Z,60.10
2019-01-24T08:25:03.628Z,56.10
2019-01-24T08:26:03.573Z,57.10
2019-01-24T08:27:03.512Z,57.20
2019-01-24T08:28:03.475Z,56.20
2019-01-24T08:29:03.446Z,53.50
2019-01-24T08:30:03.330Z,55.00
2019-01-24T08:31:03.277Z,60.10
2019-01-24T08:32:03.240Z,58.00
2019-01-24T08:33:03.170Z,58.10
2019-01-24T08:34:03.088Z,49.10
2019-01-24T08:35:03.027Z,55.80
2019-01-24T08:36:02.975Z,55.40
2019-01-24T08:37:02.914Z,57.80
2019-01-24T08:38:02.869Z,54.60
2019-01-24T08:39:02.793Z,56.30
2019-01-24T08:40:02.754Z,52.90
2019-01-24T08:41:02.672Z,52.90
2019-01-24T08:42:02.607Z,54.20
2019-01-24T08:43:02.548Z,51.10
2019-01-24T08:44:02.521Z,55.80
2019-01-24T08:45:02.433Z,51.90
2019-01-24T08:46:02.375Z,55.30
2019-01-24T08:47:02.311Z,53.60
2019-01-24T08:48:02.256Z,56.20
2019-01-24T08:49:02.221Z,56.30
2019-01-24T08:50:02.134Z,54.10
2019-01-24T08:51:02.072Z,56.20
2019-01-24T08:52:02.015Z,56.80
2019-01-24T08:53:01.949Z,52.30
2019-01-24T08:54:01.919Z,55.60
2019-01-24T08:55:01.844Z,55.60
2019-01-24T08:56:01.871Z,55.00
2019-01-24T08:57:01.710Z,58.40
2019-01-24T08:58:01.653Z,57.20
2019-01-24T08:59:01.613Z,60.90
2019-01-24T09:00:01.533Z,58.90
2019-01-24T09:01:01.470Z,58.20
2019-01-24T09:02:01.413Z,54.60
2019-01-24T09:03:01.357Z,56.20
2019-01-24T09:04:01.319Z,57.50
2019-01-24T09:05:01.237Z,55.30
2019-01-24T09:06:01.171Z,56.70
2019-01-24T09:07:01.110Z,58.10
2019-01-24T09:08:01.055Z,60.50
2019-01-24T09:09:01.015Z,57.90
2019-01-24T09:10:00.936Z,54.70
2019-01-24T09:11:00.873Z,58.10
2019-01-24T09:12:00.819Z,58.90
2019-01-24T09:13:00.753Z,58.70
2019-01-24T09:14:00.718Z,56.10
2019-01-24T09:15:00.632Z,57.70
2019-01-24T09:16:00.572Z,55.60
2019-01-24T09:17:00.517Z,53.90
2019-01-24T09:18:00.452Z,58.40
2019-01-24T09:19:00.425Z,55.80
2019-01-24T09:20:00.343Z,57.00
2019-01-24T09:21:00.276Z,60.50
2019-01-24T09:22:00.216Z,57.40
2019-01-24T09:23:00.156Z,55.80
2019-01-24T09:24:00.117Z,60.70
2019-01-24T09:25:00.034Z,56.30
2019-01-24T09:25:59.980Z,55.70
2019-01-24T09:26:59.925Z,54.30
2019-01-24T09:27:59.867Z,56.30
2019-01-24T09:28:59.822Z,57.40
2019-01-24T09:29:59.740Z,55.90
2019-01-24T09:30:59.680Z,56.00
2019-01-24T09:31:59.618Z,54.70
2019-01-24T09:32:59.555Z,56.10
2019-01-24T09:33:59.527Z,53.60
2019-01-24T09:34:59.439Z,58.50
2019-01-24T09:35:59.380Z,56.40
2019-01-24T09:36:59.328Z,54.80
2019-01-24T09:37:59.259Z,54.40
2019-01-24T09:38:59.225Z,57.50
2019-01-24T09:39:59.139Z,55.90
2019-01-24T09:40:59.159Z,55.20
2019-01-24T09:41:59.023Z,52.30
2019-01-24T09:42:58.960Z,55.10
2019-01-24T09:43:58.936Z,56.90
2019-01-24T09:44:58.842Z,54.20
2019-01-24T09:45:58.815Z,59.50
2019-01-24T09:46:58.720Z,54.50
2019-01-24T09:47:58.671Z,52.60
2019-01-24T09:48:58.628Z,53.60
2019-01-24T09:49:58.551Z,53.50
2019-01-24T09:50:58.485Z,57.40
2019-01-24T09:51:58.426Z,59.20
2019-01-24T09:52:58.366Z,53.50
2019-01-24T09:53:58.327Z,58.50
2019-01-24T09:54:58.245Z,56.90
2019-01-24T09:55:58.188Z,54.30
2019-01-24T09:56:58.126Z,58.60
2019-01-24T09:57:58.065Z,53.00
2019-01-24T09:58:58.030Z,55.00
2019-01-24T09:59:57.943Z,58.50
2019-01-24T10:00:57.889Z,54.20
2019-01-24T10:01:57.828Z,55.90
2019-01-24T10:02:57.768Z,59.80
2019-01-24T10:03:57.739Z,57.20
2019-01-24T10:04:57.655Z,54.50
2019-01-24T10:05:57.610Z,51.90
2019-01-24T10:06:57.538Z,55.10
2019-01-24T10:07:57.464Z,58.80
2019-01-24T10:08:57.436Z,52.80
2019-01-24T10:09:57.344Z,54.90
2019-01-24T10:10:57.289Z,57.60
2019-01-24T10:11:57.230Z,54.00
2019-01-24T10:12:57.170Z,54.10
2019-01-24T10:13:57.136Z,55.60
2019-01-24T10:14:57.047Z,53.20
2019-01-24T10:15:56.993Z,56.70
2019-01-24T10:16:56.925Z,55.60
2019-01-24T10:17:56.870Z,50.50
2019-01-24T10:18:56.842Z,59.40
2019-01-24T10:19:56.754Z,54.10
2019-01-24T10:20:56.700Z,57.00
2019-01-24T10:21:56.631Z,54.50
2019-01-24T10:22:56.574Z,52.80
2019-01-24T10:23:56.578Z,56.40
2019-01-24T10:24:56.469Z,57.00
2019-01-24T10:25:56.395Z,57.60
2019-01-24T10:26:56.331Z,51.20
2019-01-24T10:27:56.293Z,54.90
2019-01-24T10:28:56.297Z,55.50
2019-01-24T10:29:56.152Z,53.60
2019-01-24T10:30:56.095Z,52.10
2019-01-24T10:31:56.040Z,58.50
2019-01-24T10:32:55.971Z,54.90
2019-01-24T10:33:55.923Z,55.60
2019-01-24T10:34:55.879Z,54.20
2019-01-24T10:35:55.794Z,52.60
2019-01-24T10:36:55.734Z,53.90
2019-01-24T10:37:55.677Z,54.50
2019-01-24T10:38:55.623Z,57.80
2019-01-24T10:39:55.575Z,57.70
2019-01-24T10:40:55.505Z,51.80
2019-01-24T10:41:55.438Z,49.80
2019-01-24T10:42:55.368Z,51.70
2019-01-24T10:43:55.315Z,57.00
2019-01-24T10:44:55.311Z,55.40
2019-01-24T10:45:55.201Z,58.50
2019-01-24T10:46:55.132Z,52.70
2019-01-24T10:47:55.083Z,55.30
2019-01-24T10:48:55.012Z,55.70
2019-01-24T10:49:54.973Z,55.60
2019-01-24T10:50:54.906Z,54.70
2019-01-24T10:51:54.837Z,52.60
2019-01-24T10:52:54.778Z,53.00
2019-01-24T10:53:54.721Z,56.50
2019-01-24T10:54:54.692Z,51.00
2019-01-24T10:55:54.596Z,57.60
2019-01-24T10:56:54.548Z,51.70
2019-01-24T10:57:54.480Z,57.30
2019-01-24T10:58:54.421Z,55.20
2019-01-24T10:59:54.379Z,53.50
2019-01-24T11:00:54.298Z,53.10
2019-01-24T11:01:54.245Z,51.50
2019-01-24T11:02:54.179Z,53.60
2019-01-24T11:03:54.117Z,53.10
2019-01-24T11:04:54.088Z,51.30
2019-01-24T11:05:54.004Z,52.00
2019-01-24T11:06:53.941Z,55.00
2019-01-24T11:07:53.880Z,49.80
2019-01-24T11:08:53.817Z,55.50
2019-01-24T11:09:53.787Z,51.50
2019-01-24T11:10:53.733Z,53.30
2019-01-24T11:11:53.647Z,55.20
2019-01-24T11:12:53.583Z,52.20
2019-01-24T11:13:53.526Z,53.00
2019-01-24T11:14:53.498Z,55.20
2019-01-24T11:15:53.408Z,47.90
2019-01-24T11:16:53.337Z,56.50
2019-01-24T11:17:53.284Z,54.70
2019-01-24T11:18:53.225Z,52.80
2019-01-24T11:19:53.197Z,50.20
2019-01-24T11:20:53.103Z,53.70
2019-01-24T11:21:53.035Z,53.20
2019-01-24T11:22:52.986Z,55.10
2019-01-24T11:23:52.918Z,54.10
2019-01-24T11:24:52.898Z,52.10
2019-01-24T11:25:52.818Z,50.50
2019-01-24T11:26:52.748Z,48.80
2019-01-24T11:27:52.684Z,49.60
2019-01-24T11:28:52.629Z,51.60
2019-01-24T11:29:52.575Z,50.00
2019-01-24T11:30:52.706Z,49.10
2019-01-24T11:31:52.453Z,49.90
2019-01-24T11:32:52.392Z,54.20
2019-01-24T11:33:52.328Z,54.70
2019-01-24T11:34:52.277Z,54.70
2019-01-24T11:35:52.257Z,47.00
2019-01-24T11:36:57.016Z,52.30
2019-01-24T11:37:52.091Z,49.60
2019-01-24T11:38:52.036Z,50.30
2019-01-24T11:39:51.977Z,51.40
2019-01-24T11:40:51.947Z,50.30
2019-01-24T11:41:51.866Z,49.10
2019-01-24T11:42:51.797Z,50.90
2019-01-24T11:43:51.744Z,50.10
2019-01-24T11:44:51.683Z,50.60
2019-01-24T11:45:51.650Z,51.90
2019-01-24T11:46:51.560Z,49.70
2019-01-24T11:47:51.539Z,52.10
2019-01-24T11:48:51.450Z,51.60
2019-01-24T11:49:51.383Z,47.30
2019-01-24T11:50:51.350Z,46.40
2019-01-24T11:51:51.267Z,51.60
2019-01-24T11:52:51.212Z,52.20
2019-01-24T11:53:53.227Z,50.10
2019-01-24T11:54:51.087Z,48.90
2019-01-24T11:55:51.052Z,52.10
2019-01-24T11:56:50.970Z,49.80
2019-01-24T11:57:50.911Z,49.00
2019-01-24T11:58:50.855Z,50.30
2019-01-24T11:59:50.790Z,51.00
2019-01-24T12:00:50.750Z,48.40
2019-01-24T12:01:50.682Z,50.90
2019-01-24T12:02:50.611Z,51.30
2019-01-24T12:03:50.550Z,53.50
2019-01-24T12:04:50.489Z,52.60
2019-01-24T12:05:50.456Z,51.80
2019-01-24T12:06:50.378Z,53.80
2019-01-24T12:07:50.315Z,56.40
2019-01-24T12:08:50.255Z,53.60
2019-01-24T12:09:50.197Z,51.00
2019-01-24T12:10:50.159Z,56.10
2019-01-24T12:11:50.078Z,55.30
2019-01-24T12:12:50.022Z,53.10
2019-01-24T12:13:49.956Z,53.60
2019-01-24T12:14:49.893Z,52.50
2019-01-24T12:15:49.866Z,52.10
2019-01-24T12:16:49.776Z,54.90
2019-01-24T12:17:49.720Z,53.30
2019-01-24T12:18:49.659Z,49.10
2019-01-24T12:19:49.601Z,47.50
2019-01-24T12:20:49.561Z,53.10
2019-01-24T12:21:49.483Z,52.40
2019-01-24T12:22:49.434Z,52.80
2019-01-24T12:23:49.360Z,53.10
2019-01-24T12:24:49.311Z,51.80
2019-01-24T12:25:49.285Z,50.50
2019-01-24T12:26:49.193Z,50.50
2019-01-24T12:27:49.129Z,60.20
2019-01-24T12:28:49.073Z,56.20
2019-01-24T12:29:49.010Z,55.00
2019-01-24T12:30:49.272Z,53.40
2019-01-24T12:31:48.897Z,55.60
2019-01-24T12:32:48.833Z,58.90
2019-01-24T12:33:48.768Z,55.20
2019-01-24T12:34:48.713Z,55.50
2019-01-24T12:35:48.654Z,55.10
2019-01-24T12:36:48.616Z,54.20
2019-01-24T12:37:48.535Z,56.50
2019-01-24T12:38:48.473Z,52.30
2019-01-24T12:39:48.417Z,53.00
2019-01-24T12:40:48.364Z,54.30
2019-01-24T12:41:48.322Z,54.00
2019-01-24T12:42:48.238Z,52.00
2019-01-24T12:43:48.179Z,54.30
2019-01-24T12:44:48.138Z,48.50
2019-01-24T12:45:48.057Z,48.10
2019-01-24T12:46:48.032Z,46.60
2019-01-24T12:47:47.943Z,49.10
2019-01-24T12:48:47.882Z,52.60
2019-01-24T12:49:47.823Z,51.30
2019-01-24T12:50:47.764Z,50.40
2019-01-24T12:51:47.725Z,50.20